Northfield Village, Ohio
Current Conditions -  °F | °C
As of 8:53 AM on Sunday 23 Nov 2014 (Local Time) from KBKL Reporting Station
Overcast Overcast  
Wind Chill: 40°   Ceiling: 4500
Heat Index: 46°   Visibility: 10mi
Dew Point: 40°   Wind: 15mph
Humidity: 79%   Direction: 150°SSE
Pressure: 29.99"   Gusts: NA
Location:  41.3128°N, 81.5476°W
Report Text: KBKL 231353Z 15013KT 10SM OVC045 08/04 A2999 RMK AO2 SLP159 T00780044
Loading
Personal Weather Stations






























Interactive Weather Map New forecast layout! Learn more

10-Day Weather Forecast

Advertisements
Track Severe Weather on mobile